createdAt,value
2022-10-14T00:00:08.723Z,66.18
2022-10-14T00:03:03.290Z,65.11
2022-10-14T00:05:35.062Z,63.82
2022-10-14T00:08:06.920Z,62.70
2022-10-14T00:10:41.060Z,61.99
2022-10-14T00:13:12.755Z,60.56
2022-10-14T00:15:44.981Z,57.26
2022-10-14T00:18:16.900Z,55.94
2022-10-14T00:20:57.946Z,57.26
2022-10-14T00:23:30.093Z,58.83
2022-10-14T00:26:02.388Z,63.49
2022-10-14T00:28:35.461Z,66.37
2022-10-14T00:31:07.308Z,64.47
2022-10-14T00:33:39.030Z,62.60
2022-10-14T00:36:13.854Z,61.69
2022-10-14T00:38:47.659Z,60.53
2022-10-14T00:41:21.933Z,57.29
2022-10-14T00:44:02.235Z,56.08
2022-10-14T00:46:36.061Z,57.48
2022-10-14T00:49:15.563Z,59.77
2022-10-14T00:51:53.481Z,64.71
2022-10-14T00:54:30.419Z,67.04
2022-10-14T00:57:03.387Z,66.12
2022-10-14T00:59:37.275Z,64.66
2022-10-14T01:02:09.392Z,63.39
2022-10-14T01:04:44.011Z,62.04
2022-10-14T01:07:25.342Z,60.92
2022-10-14T01:10:04.289Z,57.99
2022-10-14T01:12:45.294Z,56.86
2022-10-14T01:15:26.419Z,58.18
2022-10-14T01:18:09.864Z,59.70
2022-10-14T01:20:54.983Z,64.68
2022-10-14T01:23:55.474Z,66.94
2022-10-14T01:26:49.668Z,64.60
2022-10-14T01:29:34.954Z,61.95
2022-10-14T01:32:14.336Z,60.04
2022-10-14T01:34:53.518Z,56.44
2022-10-14T01:37:30.090Z,55.21
2022-10-14T01:40:06.796Z,56.14
2022-10-14T01:42:42.208Z,57.35
2022-10-14T01:45:20.103Z,58.67
2022-10-14T01:47:54.487Z,59.85
2022-10-14T01:50:29.182Z,64.43
2022-10-14T01:53:06.276Z,67.17
2022-10-14T01:55:43.479Z,64.62
2022-10-14T01:58:18.116Z,62.32
2022-10-14T02:00:50.034Z,60.59
2022-10-14T02:03:21.732Z,57.32
2022-10-14T02:06:00.781Z,55.40
2022-10-14T02:08:46.529Z,56.09
2022-10-14T02:11:21.141Z,57.21
2022-10-14T02:14:09.194Z,59.39
2022-10-14T02:16:49.355Z,64.80
2022-10-14T02:19:30.561Z,67.67
2022-10-14T02:22:06.969Z,65.47
2022-10-14T02:24:41.989Z,63.70
2022-10-14T02:27:17.500Z,62.21
2022-10-14T02:29:50.667Z,60.93
2022-10-14T02:32:25.381Z,58.42
2022-10-14T02:34:59.938Z,56.34
2022-10-14T02:37:34.040Z,57.26
2022-10-14T02:40:12.799Z,59.01
2022-10-14T02:42:44.688Z,60.45
2022-10-14T02:45:17.402Z,65.26
2022-10-14T02:47:50.005Z,67.88
2022-10-14T02:50:22.202Z,65.83
2022-10-14T02:52:56.424Z,63.92
2022-10-14T02:55:28.275Z,62.10
2022-10-14T02:57:59.969Z,60.57
2022-10-14T03:00:31.827Z,57.47
2022-10-14T03:03:03.669Z,56.17
2022-10-14T03:05:35.683Z,57.01
2022-10-14T03:08:07.837Z,58.45
2022-10-14T03:10:39.496Z,59.84
2022-10-14T03:13:12.857Z,64.57
2022-10-14T03:15:48.865Z,67.41
2022-10-14T03:18:21.696Z,64.79
2022-10-14T03:20:53.876Z,62.21
2022-10-14T03:23:28.886Z,60.71
2022-10-14T03:26:00.566Z,57.83
2022-10-14T03:28:38.000Z,56.43
2022-10-14T03:31:23.968Z,57.84
2022-10-14T03:34:14.444Z,59.57
2022-10-14T03:36:46.672Z,64.78
2022-10-14T03:39:18.507Z,67.59
2022-10-14T03:41:53.742Z,65.27
2022-10-14T03:44:30.805Z,63.20
2022-10-14T03:47:23.499Z,61.87
2022-10-14T03:49:55.907Z,60.56
2022-10-14T03:52:32.448Z,57.51
2022-10-14T03:55:10.443Z,56.42
2022-10-14T03:57:42.304Z,57.74
2022-10-14T04:00:17.485Z,59.37
2022-10-14T04:02:51.260Z,64.01
2022-10-14T04:05:37.245Z,67.03
2022-10-14T04:08:14.022Z,64.57
2022-10-14T04:10:54.538Z,62.57
2022-10-14T04:13:26.854Z,61.10
2022-10-14T04:15:58.864Z,60.16
2022-10-14T04:18:39.337Z,57.52
2022-10-14T04:21:14.830Z,56.13
2022-10-14T04:23:47.367Z,57.46
2022-10-14T04:26:20.943Z,59.00
2022-10-14T04:28:52.910Z,63.54
2022-10-14T04:31:35.160Z,66.83
2022-10-14T04:34:07.999Z,64.55
2022-10-14T04:36:42.428Z,62.52
2022-10-14T04:39:27.156Z,61.12
2022-10-14T04:41:59.130Z,60.17
2022-10-14T04:44:31.021Z,57.49
2022-10-14T04:47:05.745Z,56.39
2022-10-14T04:49:37.576Z,57.58
2022-10-14T04:52:14.406Z,58.92
2022-10-14T04:55:07.506Z,58.35
2022-10-14T04:57:43.918Z,65.30
2022-10-14T05:00:18.014Z,68.83
2022-10-14T05:03:04.676Z,66.97
2022-10-14T05:05:38.941Z,64.88
2022-10-14T05:08:10.713Z,63.60
2022-10-14T05:10:45.731Z,62.28
2022-10-14T05:13:21.629Z,61.09
2022-10-14T05:16:00.108Z,59.93
2022-10-14T05:18:32.239Z,57.40
2022-10-14T05:21:07.572Z,56.39
2022-10-14T05:23:57.495Z,57.38
2022-10-14T05:26:30.605Z,59.10
2022-10-14T05:29:03.498Z,63.19
2022-10-14T05:31:35.489Z,66.77
2022-10-14T05:34:15.832Z,65.01
2022-10-14T05:36:48.247Z,62.63
2022-10-14T05:39:20.978Z,60.75
2022-10-14T05:41:53.127Z,57.78
2022-10-14T05:44:28.191Z,56.04
2022-10-14T05:47:00.311Z,56.71
2022-10-14T05:49:32.430Z,57.92
2022-10-14T05:52:06.343Z,59.27
2022-10-14T05:54:38.459Z,63.73
2022-10-14T05:57:11.007Z,67.00
2022-10-14T05:59:43.473Z,65.28
2022-10-14T06:02:15.429Z,62.81
2022-10-14T06:04:47.516Z,61.15
2022-10-14T06:07:19.949Z,57.78
2022-10-14T06:09:51.873Z,56.25
2022-10-14T06:12:25.758Z,57.03
2022-10-14T06:14:57.892Z,58.54
2022-10-14T06:20:18.614Z,66.27
2022-10-14T06:22:50.481Z,68.02
2022-10-14T06:25:22.829Z,66.07
2022-10-14T06:27:55.236Z,63.74
2022-10-14T06:30:27.473Z,61.94
2022-10-14T06:33:00.161Z,60.69
2022-10-14T06:35:32.251Z,57.34
2022-10-14T06:38:07.613Z,55.63
2022-10-14T06:40:40.463Z,55.81
2022-10-14T06:43:12.950Z,57.41
2022-10-14T06:45:45.610Z,58.73
2022-10-14T06:48:17.566Z,60.36
2022-10-14T06:50:49.772Z,64.83
2022-10-14T06:53:22.328Z,68.10
2022-10-14T06:56:00.621Z,66.23
2022-10-14T06:58:32.354Z,64.31
2022-10-14T07:01:07.014Z,63.77
2022-10-14T07:03:39.636Z,60.98
2022-10-14T07:06:12.351Z,57.60
2022-10-14T07:08:45.370Z,55.97
2022-10-14T07:17:18.197Z,58.82
2022-10-14T07:19:50.081Z,64.35
2022-10-14T07:22:22.336Z,67.08
2022-10-14T07:24:54.933Z,65.88
2022-10-14T07:27:28.322Z,64.50
2022-10-14T07:30:01.870Z,62.94
2022-10-14T07:32:37.018Z,61.69
2022-10-14T07:35:10.959Z,60.78
2022-10-14T07:37:45.637Z,58.19
2022-10-14T07:40:17.800Z,56.12
2022-10-14T07:42:49.766Z,56.99
2022-10-14T07:45:21.844Z,58.24
2022-10-14T07:47:53.995Z,59.90
2022-10-14T07:50:26.061Z,64.39
2022-10-14T07:53:01.180Z,66.62
2022-10-14T07:55:33.525Z,64.51
2022-10-14T07:58:05.438Z,62.74
2022-10-14T08:00:38.553Z,61.53
2022-10-14T08:03:10.554Z,60.42
2022-10-14T08:05:42.743Z,58.15
2022-10-14T08:08:15.757Z,56.84
2022-10-14T08:10:48.013Z,57.87
2022-10-14T08:13:19.906Z,60.65
2022-10-14T08:15:51.898Z,65.26
2022-10-14T08:18:26.966Z,66.32
2022-10-14T08:20:59.449Z,64.42
2022-10-14T08:23:33.000Z,62.20
2022-10-14T08:26:05.512Z,60.84
2022-10-14T08:28:37.926Z,57.99
2022-10-14T08:31:10.051Z,56.87
2022-10-14T08:33:41.907Z,57.80
2022-10-14T08:36:14.573Z,59.15
2022-10-14T08:38:46.824Z,60.69
2022-10-14T08:41:31.030Z,66.01
2022-10-14T08:44:15.286Z,67.99
2022-10-14T08:46:52.475Z,64.38
2022-10-14T08:49:30.863Z,62.22
2022-10-14T08:52:05.038Z,60.47
2022-10-14T08:54:42.732Z,57.37
2022-10-14T08:57:20.173Z,56.39
2022-10-14T08:59:51.955Z,57.81
2022-10-14T09:02:37.110Z,59.02
2022-10-14T09:05:14.762Z,60.38
2022-10-14T09:10:31.409Z,66.46
2022-10-14T09:13:15.509Z,62.86
2022-10-14T09:15:51.444Z,61.24
2022-10-14T09:18:33.886Z,59.84
2022-10-14T09:21:27.762Z,57.28
2022-10-14T09:24:16.712Z,56.54
2022-10-14T09:26:52.522Z,57.83
2022-10-14T09:29:28.752Z,59.41
2022-10-14T09:32:07.517Z,60.50
2022-10-14T09:34:42.523Z,64.25
2022-10-14T09:37:27.097Z,64.99
2022-10-14T09:40:03.456Z,62.65
2022-10-14T09:42:45.570Z,60.50
2022-10-14T09:45:19.990Z,57.51
2022-10-14T09:47:57.199Z,55.89
2022-10-14T09:50:41.412Z,56.10
2022-10-14T09:53:26.476Z,57.54
2022-10-14T09:56:01.103Z,58.50
2022-10-14T09:58:37.463Z,59.57
2022-10-14T10:01:15.936Z,60.30
2022-10-14T10:03:49.289Z,63.93
2022-10-14T10:06:26.002Z,64.88
2022-10-14T10:09:02.111Z,61.62
2022-10-14T10:11:37.677Z,58.05
2022-10-14T10:14:23.525Z,55.98
2022-10-14T10:17:19.535Z,55.98
2022-10-14T10:20:07.162Z,57.86
2022-10-14T10:22:39.570Z,58.60
2022-10-14T10:25:28.272Z,59.57
2022-10-14T10:28:02.462Z,59.69
2022-10-14T10:30:44.899Z,60.66
2022-10-14T10:33:29.349Z,60.23
2022-10-14T10:36:24.175Z,60.96
2022-10-14T10:39:03.669Z,63.88
2022-10-14T10:41:48.538Z,63.02
2022-10-14T10:44:40.647Z,61.53
2022-10-14T10:47:24.896Z,57.84
2022-10-14T10:50:18.257Z,55.44
2022-10-14T10:53:11.235Z,56.09
2022-10-14T10:55:56.585Z,56.60
2022-10-14T10:58:44.398Z,57.35
2022-10-14T11:01:21.447Z,57.99
2022-10-14T11:04:08.755Z,58.58
2022-10-14T11:07:07.980Z,59.35
2022-10-14T11:10:08.762Z,59.72
2022-10-14T11:12:50.431Z,59.83
2022-10-14T11:15:33.125Z,61.07
2022-10-14T11:18:10.683Z,60.38
2022-10-14T11:20:55.805Z,60.32
2022-10-14T11:23:49.604Z,59.96
2022-10-14T11:26:38.335Z,60.55
2022-10-14T11:29:27.423Z,59.82
2022-10-14T11:32:11.699Z,60.21
2022-10-14T11:34:54.214Z,59.69
2022-10-14T11:37:45.331Z,59.53
2022-10-14T11:40:25.756Z,59.59
2022-10-14T11:43:08.848Z,60.10
2022-10-14T11:45:53.739Z,59.87
2022-10-14T11:48:33.935Z,59.64
2022-10-14T11:51:17.310Z,59.61
2022-10-14T11:54:00.985Z,58.82
2022-10-14T11:56:38.749Z,59.44
2022-10-14T11:59:23.919Z,58.47
2022-10-14T12:02:02.048Z,58.69
2022-10-14T12:04:38.383Z,58.99
2022-10-14T12:07:17.644Z,58.87
2022-10-14T12:09:59.024Z,58.07
2022-10-14T12:12:33.601Z,58.75
2022-10-14T12:15:14.817Z,57.13
2022-10-14T12:17:51.257Z,57.83
2022-10-14T12:20:31.277Z,57.04
2022-10-14T12:23:06.291Z,57.79
2022-10-14T12:25:48.734Z,56.62
2022-10-14T12:28:22.166Z,56.24
2022-10-14T12:31:14.032Z,55.55
2022-10-14T12:34:25.641Z,56.31
2022-10-14T12:36:57.414Z,56.54
2022-10-14T12:39:42.980Z,54.65
2022-10-14T12:42:16.995Z,54.57
2022-10-14T12:44:52.559Z,53.97
2022-10-14T12:47:30.990Z,54.48
2022-10-14T12:50:04.947Z,54.40
2022-10-14T12:52:39.771Z,52.65
2022-10-14T12:55:18.841Z,52.23
2022-10-14T12:57:56.437Z,52.46
2022-10-14T13:00:39.228Z,52.62
2022-10-14T13:03:22.836Z,52.33
2022-10-14T13:06:30.946Z,52.13
2022-10-14T13:09:33.255Z,51.39
2022-10-14T13:12:46.912Z,52.43
2022-10-14T13:15:53.242Z,50.95
2022-10-14T13:18:52.643Z,50.86
2022-10-14T13:21:53.504Z,49.96
2022-10-14T13:24:29.332Z,49.80
2022-10-14T13:27:15.541Z,49.14
2022-10-14T13:30:03.846Z,48.99
2022-10-14T13:32:42.025Z,50.01
2022-10-14T13:35:25.485Z,49.70
2022-10-14T13:38:01.306Z,48.38
2022-10-14T13:40:35.644Z,47.81
2022-10-14T13:43:16.629Z,47.60
2022-10-14T13:45:53.414Z,48.13
2022-10-14T13:48:31.419Z,48.58
2022-10-14T13:51:36.553Z,48.49
2022-10-14T13:54:24.100Z,49.01
2022-10-14T13:57:38.359Z,48.91
2022-10-14T14:02:54.512Z,49.66
2022-10-14T14:05:36.021Z,49.41
2022-10-14T14:11:16.366Z,50.08
2022-10-14T14:13:59.833Z,49.79
2022-10-14T14:16:36.325Z,50.13
2022-10-14T14:19:18.447Z,50.30
2022-10-14T14:21:50.122Z,50.71
2022-10-14T14:24:25.736Z,50.60
2022-10-14T14:26:58.262Z,50.70
2022-10-14T14:29:33.116Z,50.70
2022-10-14T14:32:08.162Z,50.87
2022-10-14T14:34:43.703Z,51.29
2022-10-14T14:40:21.906Z,50.96
2022-10-14T14:42:56.138Z,51.60
2022-10-14T14:45:30.574Z,51.80
2022-10-14T14:48:07.751Z,52.19
2022-10-14T14:50:43.485Z,52.53
2022-10-14T14:53:20.570Z,52.68
2022-10-14T14:56:05.843Z,52.81
2022-10-14T14:58:44.976Z,52.88
2022-10-14T15:01:25.459Z,53.41
2022-10-14T15:04:13.718Z,53.58
2022-10-14T15:06:53.486Z,53.88
2022-10-14T15:09:31.348Z,54.26
2022-10-14T15:12:05.325Z,54.32
2022-10-14T15:14:46.248Z,54.61
2022-10-14T15:17:34.230Z,54.88
2022-10-14T15:20:29.593Z,55.14
2022-10-14T15:23:01.321Z,55.48
2022-10-14T15:25:34.163Z,55.77
2022-10-14T15:28:06.006Z,56.11
2022-10-14T15:30:55.669Z,56.44
2022-10-14T15:33:28.391Z,56.82
2022-10-14T15:36:02.802Z,57.15
2022-10-14T15:38:35.546Z,57.56
2022-10-14T15:41:07.798Z,58.03
2022-10-14T15:43:39.988Z,58.47
2022-10-14T15:46:32.760Z,58.90
2022-10-14T15:49:12.861Z,59.22
2022-10-14T15:51:44.594Z,59.84
2022-10-14T15:54:18.786Z,60.47
2022-10-14T15:56:50.485Z,60.98
2022-10-14T15:59:22.228Z,61.46
2022-10-14T16:01:54.735Z,64.54
2022-10-14T16:04:28.071Z,67.59
2022-10-14T16:06:59.983Z,65.41
2022-10-14T16:09:31.737Z,62.21
2022-10-14T16:12:05.101Z,58.56
2022-10-14T16:14:37.352Z,56.42
2022-10-14T16:17:09.627Z,56.88
2022-10-14T16:19:43.959Z,57.77
2022-10-14T16:22:17.572Z,58.81
2022-10-14T16:24:49.274Z,59.80
2022-10-14T16:27:21.378Z,60.62
2022-10-14T16:29:53.377Z,63.98
2022-10-14T16:32:25.281Z,66.07
2022-10-14T16:34:57.151Z,64.82
2022-10-14T16:37:28.853Z,63.37
2022-10-14T16:40:01.065Z,62.45
2022-10-14T16:42:32.774Z,61.35
2022-10-14T16:45:05.014Z,59.18
2022-10-14T16:47:36.894Z,57.43
2022-10-14T16:50:11.657Z,57.87
2022-10-14T16:53:03.634Z,58.82
2022-10-14T16:55:37.830Z,59.48
2022-10-14T16:58:09.494Z,60.73
2022-10-14T17:00:42.305Z,64.45
2022-10-14T17:03:15.232Z,65.79
2022-10-14T17:05:49.547Z,64.28
2022-10-14T17:08:21.896Z,62.75
2022-10-14T17:10:59.620Z,61.48
2022-10-14T17:13:31.710Z,60.52
2022-10-14T17:16:04.545Z,58.36
2022-10-14T17:18:37.227Z,57.05
2022-10-14T17:21:12.233Z,57.53
2022-10-14T17:23:45.364Z,58.40
2022-10-14T17:26:18.996Z,59.25
2022-10-14T17:28:51.307Z,60.04
2022-10-14T17:31:23.751Z,63.03
2022-10-14T17:33:56.009Z,65.47
2022-10-14T17:36:30.852Z,64.43
2022-10-14T17:39:03.306Z,62.07
2022-10-14T17:41:35.172Z,61.08
2022-10-14T17:44:07.039Z,58.68
2022-10-14T17:46:38.787Z,57.12
2022-10-14T17:49:11.018Z,57.62
2022-10-14T17:51:42.732Z,58.42
2022-10-14T17:54:14.725Z,59.29
2022-10-14T17:56:46.398Z,60.35
2022-10-14T17:59:18.175Z,63.14
2022-10-14T18:02:05.533Z,65.65
2022-10-14T18:04:37.545Z,64.30
2022-10-14T18:07:09.342Z,62.11
2022-10-14T18:09:41.091Z,59.00
2022-10-14T18:12:12.773Z,56.89
2022-10-14T18:14:44.803Z,57.19
2022-10-14T18:17:16.930Z,57.96
2022-10-14T18:19:52.132Z,58.79
2022-10-14T18:22:24.266Z,59.66
2022-10-14T18:24:56.100Z,60.41
2022-10-14T18:27:28.137Z,63.50
2022-10-14T18:29:59.875Z,65.49
2022-10-14T18:32:31.583Z,64.63
2022-10-14T18:35:03.566Z,63.65
2022-10-14T18:37:35.743Z,62.48
2022-10-14T18:40:09.117Z,61.39
2022-10-14T18:42:41.017Z,60.37
2022-10-14T18:45:13.152Z,58.13
2022-10-14T18:47:45.190Z,56.75
2022-10-14T18:50:17.072Z,57.25
2022-10-14T18:52:48.907Z,58.40
2022-10-14T18:55:20.624Z,59.35
2022-10-14T18:57:53.551Z,60.42
2022-10-14T19:00:26.920Z,63.72
2022-10-14T19:02:58.771Z,65.66
2022-10-14T19:05:33.237Z,64.43
2022-10-14T19:08:07.565Z,63.44
2022-10-14T19:10:39.522Z,62.28
2022-10-14T19:13:12.274Z,61.03
2022-10-14T19:15:46.126Z,58.77
2022-10-14T19:18:21.818Z,57.39
2022-10-14T19:20:56.825Z,58.18
2022-10-14T19:23:28.617Z,59.45
2022-10-14T19:26:01.233Z,63.01
2022-10-14T19:28:33.134Z,65.06
2022-10-14T19:31:09.116Z,64.05
2022-10-14T19:33:42.525Z,63.59
2022-10-14T19:36:16.075Z,62.90
2022-10-14T19:38:52.136Z,62.38
2022-10-14T19:41:24.290Z,61.66
2022-10-14T19:43:57.112Z,61.08
2022-10-14T19:46:30.383Z,60.48
2022-10-14T19:49:04.369Z,58.52
2022-10-14T19:51:36.720Z,57.60
2022-10-14T19:54:08.694Z,58.63
2022-10-14T19:56:40.760Z,60.04
2022-10-14T19:59:14.210Z,63.17
2022-10-14T20:01:46.041Z,65.07
2022-10-14T20:04:20.804Z,63.69
2022-10-14T20:06:54.626Z,62.40
2022-10-14T20:09:26.381Z,61.21
2022-10-14T20:11:58.459Z,60.28
2022-10-14T20:14:30.515Z,57.67
2022-10-14T20:17:03.859Z,56.67
2022-10-14T20:19:39.904Z,57.57
2022-10-14T20:22:12.176Z,58.92
2022-10-14T20:24:44.525Z,60.22
2022-10-14T20:27:16.307Z,63.48
2022-10-14T20:29:48.140Z,65.37
2022-10-14T20:32:19.981Z,64.26
2022-10-14T20:34:51.745Z,62.83
2022-10-14T20:37:27.271Z,61.67
2022-10-14T20:39:59.978Z,60.71
2022-10-14T20:42:33.917Z,60.12
2022-10-14T20:45:06.981Z,57.83
2022-10-14T20:47:38.670Z,56.87
2022-10-14T20:50:11.764Z,57.73
2022-10-14T20:52:43.878Z,58.98
2022-10-14T20:55:16.445Z,60.31
2022-10-14T20:57:48.164Z,63.50
2022-10-14T21:00:20.377Z,65.02
2022-10-14T21:02:53.369Z,64.54
2022-10-14T21:05:25.068Z,63.43
2022-10-14T21:07:56.933Z,62.69
2022-10-14T21:10:30.540Z,62.48
2022-10-14T21:13:02.313Z,62.16
2022-10-14T21:15:34.376Z,61.97
2022-10-14T21:18:06.655Z,61.43
2022-10-14T21:20:38.398Z,60.84
2022-10-14T21:23:10.105Z,60.86
2022-10-14T21:25:41.866Z,61.31
2022-10-14T21:28:13.900Z,61.36
2022-10-14T21:30:46.012Z,61.56
2022-10-14T21:33:17.796Z,60.71
2022-10-14T21:35:49.474Z,60.25
2022-10-14T21:38:21.278Z,58.41
2022-10-14T21:40:53.206Z,57.66
2022-10-14T21:43:25.466Z,58.64
2022-10-14T21:45:57.235Z,59.85
2022-10-14T21:48:28.919Z,62.95
2022-10-14T21:51:09.246Z,64.43
2022-10-14T21:53:42.580Z,63.85
2022-10-14T21:56:15.615Z,63.10
2022-10-14T21:58:47.460Z,62.43
2022-10-14T22:01:22.710Z,62.04
2022-10-14T22:03:58.158Z,61.50
2022-10-14T22:06:30.872Z,61.26
2022-10-14T22:09:05.171Z,60.49
2022-10-14T22:11:39.761Z,59.84
2022-10-14T22:14:14.982Z,58.24
2022-10-14T22:16:47.233Z,57.62
2022-10-14T22:19:19.892Z,58.54
2022-10-14T22:21:51.612Z,59.72
2022-10-14T22:24:23.326Z,60.75
2022-10-14T22:26:55.669Z,63.69
2022-10-14T22:29:27.470Z,66.09
2022-10-14T22:31:59.508Z,65.11
2022-10-14T22:34:31.313Z,63.82
2022-10-14T22:37:03.015Z,62.97
2022-10-14T22:39:34.767Z,62.50
2022-10-14T22:42:06.655Z,62.36
2022-10-14T22:44:38.768Z,62.18
2022-10-14T22:47:10.866Z,62.13
2022-10-14T22:49:42.560Z,61.52
2022-10-14T22:52:14.218Z,60.94
2022-10-14T22:54:45.943Z,60.82
2022-10-14T22:57:18.173Z,60.74
2022-10-14T22:59:49.909Z,60.56
2022-10-14T23:02:21.999Z,60.51
2022-10-14T23:04:53.956Z,60.23
2022-10-14T23:07:25.779Z,59.58
2022-10-14T23:09:57.459Z,57.96
2022-10-14T23:12:29.473Z,57.84
2022-10-14T23:15:01.170Z,59.12
2022-10-14T23:17:33.291Z,60.42
2022-10-14T23:20:05.154Z,63.63
2022-10-14T23:22:37.167Z,66.13
2022-10-14T23:25:10.254Z,65.45
2022-10-14T23:27:42.290Z,64.07
2022-10-14T23:30:14.546Z,62.77
2022-10-14T23:32:46.246Z,61.74
2022-10-14T23:35:18.381Z,61.20
2022-10-14T23:37:50.356Z,60.77
2022-10-14T23:40:22.046Z,60.22
2022-10-14T23:42:53.671Z,58.47
2022-10-14T23:45:25.370Z,57.63
2022-10-14T23:47:57.253Z,58.50
2022-10-14T23:50:29.925Z,59.72
2022-10-14T23:53:01.806Z,62.20
2022-10-14T23:55:33.573Z,64.48
2022-10-14T23:58:05.245Z,64.15
